Time;durP1;ratioP1;P1;durP2;ratioP2;P2;SDS_P1;SDS_P2;PMS_P1;PMS_P2;Temp;Humidity;BMP_temperature;BMP_pressure;BME280_temperature;BME280_humidity;BME280_pressure;Samples;Min_cycle;Max_cycle;Signal;HPM_P1;HPM_P2
2023/09/12 00:00:16;;;;;;;11.65;3.67;;;19.10;99.10;;;;;;5091013;28;20081;-85
2023/09/12 00:02:42;;;;;;;8.85;4.25;;;19.00;99.40;;;;;;5089736;28;20036;-84
2023/09/12 00:05:07;;;;;;;9.55;4.32;;;19.00;99.50;;;;;;5090293;28;20017;-85
2023/09/12 00:07:36;;;;;;;11.13;3.80;;;19.00;99.60;;;;;;5090024;28;20480;-86
2023/09/12 00:10:02;;;;;;;10.23;3.90;;;19.00;99.80;;;;;;5088570;28;20020;-86
2023/09/12 00:12:28;;;;;;;10.75;5.07;;;19.00;99.90;;;;;;5090763;28;20620;-84
2023/09/12 00:14:54;;;;;;;12.50;4.43;;;18.90;99.90;;;;;;5089155;28;20097;-84
2023/09/12 00:17:20;;;;;;;9.68;3.47;;;19.00;99.90;;;;;;5090146;28;20085;-85
2023/09/12 00:19:45;;;;;;;14.27;4.13;;;18.90;99.90;;;;;;5090750;28;20127;-85
2023/09/12 00:22:11;;;;;;;11.68;4.60;;;18.90;99.90;;;;;;5090031;28;20043;-84
2023/09/12 00:24:37;;;;;;;15.88;4.13;;;18.90;99.90;;;;;;5089080;28;20032;-84
2023/09/12 00:27:04;;;;;;;11.85;4.53;;;18.90;99.90;;;;;;5090088;28;20024;-85
2023/09/12 00:29:30;;;;;;;10.98;3.63;;;18.90;99.90;;;;;;5090320;28;20028;-85
2023/09/12 00:31:56;;;;;;;12.65;3.72;;;18.90;99.90;;;;;;5088446;28;20518;-86
2023/09/12 00:34:21;;;;;;;13.18;3.80;;;18.90;99.90;;;;;;5088719;28;20144;-85
2023/09/12 00:36:47;;;;;;;10.90;4.13;;;19.00;99.90;;;;;;5089030;28;20119;-84
2023/09/12 00:39:13;;;;;;;14.93;3.55;;;18.90;99.90;;;;;;5089395;28;20146;-86
2023/09/12 00:41:38;;;;;;;10.73;3.70;;;19.00;99.90;;;;;;5089725;28;20116;-86
2023/09/12 00:44:04;;;;;;;13.63;3.97;;;18.90;99.90;;;;;;5088416;28;20085;-85
2023/09/12 00:46:31;;;;;;;8.52;3.38;;;19.00;99.90;;;;;;5089700;28;20081;-85
2023/09/12 00:48:59;;;;;;;9.88;3.88;;;19.00;99.90;;;;;;5089788;28;20032;-86
2023/09/12 00:51:26;;;;;;;11.85;3.97;;;18.90;99.90;;;;;;5089627;28;20051;-85
2023/09/12 00:53:53;;;;;;;7.90;4.10;;;18.90;99.90;;;;;;5089779;28;20039;-85
2023/09/12 00:56:19;;;;;;;11.80;3.50;;;18.90;99.90;;;;;;5088475;28;20488;-83
2023/09/12 00:58:45;;;;;;;8.75;3.55;;;18.90;99.90;;;;;;5088187;28;20039;-85
2023/09/12 01:01:11;;;;;;;16.63;4.18;;;18.90;99.90;;;;;;5089361;28;20453;-85
2023/09/12 01:03:37;;;;;;;10.18;3.90;;;18.80;99.90;;;;;;5089433;28;20120;-85
2023/09/12 01:06:04;;;;;;;10.98;4.35;;;18.80;99.90;;;;;;5088760;28;20081;-86
2023/09/12 01:08:31;;;;;;;15.38;3.88;;;18.80;99.90;;;;;;5089977;28;20027;-84
2023/09/12 01:10:58;;;;;;;16.58;5.20;;;18.70;99.90;;;;;;5088377;28;20023;-86
2023/09/12 01:13:23;;;;;;;13.27;4.65;;;18.70;99.90;;;;;;5089500;28;20523;-86
2023/09/12 01:15:49;;;;;;;11.43;4.07;;;18.60;99.90;;;;;;5088063;28;20036;-86
2023/09/12 01:18:15;;;;;;;11.27;3.80;;;18.60;99.90;;;;;;5088334;28;20109;-87
2023/09/12 01:20:54;;;;;;;28.50;5.03;;;18.50;99.90;;;;;;5088485;28;20405;-88
2023/09/12 01:24:05;;;;;;;10.60;3.83;;;18.50;99.90;;;;;;5090245;28;20028;-86
2023/09/12 01:26:56;;;;;;;15.43;3.95;;;18.60;99.90;;;;;;5078364;28;20043;-86
2023/09/12 01:29:24;;;;;;;14.82;3.83;;;18.60;99.90;;;;;;5089762;28;20631;-86
2023/09/12 01:31:50;;;;;;;11.38;3.92;;;18.70;99.90;;;;;;5088880;28;20504;-84
2023/09/12 01:34:16;;;;;;;10.30;3.85;;;18.80;99.90;;;;;;5087201;28;20133;-87
2023/09/12 01:36:42;;;;;;;12.57;4.22;;;18.80;99.90;;;;;;5089043;28;20453;-85
2023/09/12 01:39:08;;;;;;;15.63;4.53;;;18.80;99.90;;;;;;5088022;28;20024;-84
2023/09/12 01:41:39;;;;;;;15.75;3.97;;;18.90;99.90;;;;;;5089453;28;20031;-87
2023/09/12 01:44:05;;;;;;;15.10;3.80;;;18.90;99.90;;;;;;5089215;28;20092;-86
2023/09/12 01:46:34;;;;;;;23.38;4.32;;;18.90;99.90;;;;;;5088223;28;20537;-85
2023/09/12 01:49:01;;;;;;;14.45;4.28;;;18.80;99.90;;;;;;5088983;28;20016;-86
2023/09/12 01:51:27;;;;;;;10.77;4.15;;;18.70;99.90;;;;;;5088618;28;20099;-86
2023/09/12 01:53:55;;;;;;;13.02;3.85;;;18.70;99.90;;;;;;5088953;28;20032;-85
2023/09/12 01:56:21;;;;;;;14.00;4.18;;;18.60;99.90;;;;;;5088550;28;20042;-85
2023/09/12 01:58:47;;;;;;;9.15;3.58;;;18.60;99.90;;;;;;5088927;28;20077;-86
2023/09/12 02:01:14;;;;;;;10.18;4.00;;;18.50;99.90;;;;;;5088929;28;20036;-85
2023/09/12 02:03:39;;;;;;;8.50;4.03;;;18.50;99.90;;;;;;5087501;28;20118;-85
2023/09/12 02:06:05;;;;;;;11.23;3.63;;;18.50;99.90;;;;;;5088671;28;20115;-86
2023/09/12 02:08:30;;;;;;;14.15;4.55;;;18.50;99.90;;;;;;5087427;28;20030;-85
2023/09/12 02:10:56;;;;;;;9.70;3.83;;;18.40;99.90;;;;;;5088311;28;20403;-88
2023/09/12 02:13:22;;;;;;;12.07;3.53;;;18.40;99.90;;;;;;5089369;28;20412;-86
2023/09/12 02:15:47;;;;;;;7.88;3.55;;;18.40;99.90;;;;;;5088342;28;20500;-85
2023/09/12 02:18:13;;;;;;;9.98;3.50;;;18.40;99.90;;;;;;5088457;28;20032;-87
2023/09/12 02:20:41;;;;;;;6.90;4.18;;;18.30;99.90;;;;;;5088083;28;20032;-87
2023/09/12 02:23:07;;;;;;;11.65;4.30;;;18.30;99.90;;;;;;5088274;28;20020;-86
2023/09/12 02:25:33;;;;;;;14.30;4.57;;;18.30;99.90;;;;;;5088400;28;20028;-82
2023/09/12 02:27:58;;;;;;;10.05;3.75;;;18.30;99.90;;;;;;5088327;28;20024;-83
2023/09/12 02:30:24;;;;;;;15.40;4.20;;;18.30;99.90;;;;;;5086530;28;20032;-83
2023/09/12 02:32:49;;;;;;;13.85;4.03;;;18.30;99.90;;;;;;5086668;28;20439;-84
2023/09/12 02:35:15;;;;;;;14.52;3.88;;;18.30;99.90;;;;;;5090272;28;20478;-84
2023/09/12 02:37:41;;;;;;;14.23;4.15;;;18.30;99.90;;;;;;5091288;28;20036;-84
2023/09/12 02:40:08;;;;;;;12.98;3.33;;;18.30;99.90;;;;;;5090522;28;20487;-83
2023/09/12 02:42:34;;;;;;;11.05;3.70;;;18.30;99.90;;;;;;5090268;28;20557;-84
2023/09/12 02:44:59;;;;;;;10.38;3.28;;;18.30;99.90;;;;;;5090426;28;20028;-84
2023/09/12 02:47:25;;;;;;;12.93;4.32;;;18.20;99.90;;;;;;5091995;28;20080;-89
2023/09/12 02:49:51;;;;;;;22.23;3.33;;;18.20;99.90;;;;;;5093432;28;20024;-88
2023/09/12 02:52:16;;;;;;;11.73;4.00;;;18.20;99.90;;;;;;5093157;28;20317;-88
2023/09/12 02:54:42;;;;;;;9.02;3.72;;;18.20;99.90;;;;;;5090959;28;20484;-85
2023/09/12 02:57:08;;;;;;;15.95;4.40;;;18.10;99.90;;;;;;5091729;28;20028;-87
2023/09/12 02:59:33;;;;;;;8.82;4.03;;;18.10;99.90;;;;;;5092539;28;20024;-87
2023/09/12 03:01:59;;;;;;;17.15;4.63;;;18.10;99.90;;;;;;5092361;28;20024;-87
2023/09/12 03:04:29;;;;;;;9.82;3.95;;;18.00;99.90;;;;;;5090469;28;20028;-86
2023/09/12 03:06:55;;;;;;;13.13;3.72;;;18.00;99.90;;;;;;5090099;28;20053;-87
2023/09/12 03:09:22;;;;;;;10.95;4.18;;;17.90;99.90;;;;;;5092063;28;20109;-86
2023/09/12 03:11:49;;;;;;;12.02;4.15;;;17.90;99.90;;;;;;5092611;28;20066;-87
2023/09/12 03:14:14;;;;;;;8.82;3.65;;;17.80;99.90;;;;;;5091333;28;20032;-85
2023/09/12 03:16:40;;;;;;;15.35;4.32;;;17.80;99.90;;;;;;5089655;28;20055;-86
2023/09/12 03:19:06;;;;;;;8.52;3.90;;;17.80;99.90;;;;;;5091512;28;20058;-86
2023/09/12 03:21:32;;;;;;;14.65;3.63;;;17.80;99.90;;;;;;5090308;28;20039;-86
2023/09/12 03:23:57;;;;;;;10.68;3.78;;;17.70;99.90;;;;;;5091531;28;20032;-86
2023/09/12 03:26:23;;;;;;;17.73;4.32;;;17.70;99.90;;;;;;5090526;28;20024;-86
2023/09/12 03:28:51;;;;;;;10.93;3.72;;;17.70;99.90;;;;;;5091943;28;20035;-89
2023/09/12 03:31:16;;;;;;;9.05;3.40;;;17.70;99.90;;;;;;5092857;28;20039;-87
2023/09/12 03:33:47;;;;;;;12.68;4.13;;;17.70;99.90;;;;;;5092268;28;20028;-89
2023/09/12 03:36:13;;;;;;;17.27;4.75;;;17.70;99.90;;;;;;5090731;28;20028;-86
2023/09/12 03:38:39;;;;;;;13.02;3.80;;;17.70;99.90;;;;;;5091960;28;20085;-86
2023/09/12 03:41:04;;;;;;;15.80;3.55;;;17.70;99.90;;;;;;5091369;28;20032;-86
2023/09/12 03:43:32;;;;;;;9.27;3.60;;;17.60;99.90;;;;;;5091482;28;20039;-87
2023/09/12 03:45:58;;;;;;;16.38;4.30;;;17.60;99.90;;;;;;5090177;28;20028;-85
2023/09/12 03:48:23;;;;;;;17.65;4.03;;;17.60;99.90;;;;;;5091244;28;20036;-85
2023/09/12 03:50:49;;;;;;;15.90;4.72;;;17.50;99.90;;;;;;5091237;28;20028;-86
2023/09/12 03:53:15;;;;;;;17.10;4.13;;;17.50;99.90;;;;;;5091366;28;20039;-86
2023/09/12 03:55:42;;;;;;;18.60;4.03;;;17.50;99.90;;;;;;5089817;28;20028;-87
2023/09/12 03:58:07;;;;;;;18.80;5.03;;;17.50;99.90;;;;;;5090104;28;20055;-85
2023/09/12 04:00:33;;;;;;;11.45;4.50;;;17.50;99.90;;;;;;5089929;28;20093;-86
2023/09/12 04:02:59;;;;;;;12.98;3.72;;;17.50;99.90;;;;;;5091219;28;20024;-87
2023/09/12 04:05:25;;;;;;;13.57;4.07;;;17.50;99.90;;;;;;5091242;28;20020;-85
2023/09/12 04:07:51;;;;;;;10.13;3.90;;;17.50;99.90;;;;;;5091254;28;20024;-85
2023/09/12 04:10:21;;;;;;;16.20;4.07;;;17.60;99.90;;;;;;5090147;28;20496;-84
2023/09/12 04:12:46;;;;;;;21.63;4.57;;;17.50;99.90;;;;;;5090005;28;20039;-82
2023/09/12 04:15:12;;;;;;;15.63;3.80;;;17.50;99.90;;;;;;5088874;28;20028;-86
2023/09/12 04:17:37;;;;;;;12.38;3.72;;;17.60;99.90;;;;;;5089319;28;20036;-85
2023/09/12 04:20:06;;;;;;;12.32;3.78;;;17.50;99.90;;;;;;5090229;28;20024;-86
2023/09/12 04:22:33;;;;;;;8.57;3.78;;;17.60;99.90;;;;;;5088920;28;20498;-85
2023/09/12 04:24:59;;;;;;;18.48;4.22;;;17.60;99.90;;;;;;5089137;28;20071;-84
2023/09/12 04:27:24;;;;;;;18.42;4.10;;;17.60;99.90;;;;;;5090260;28;20547;-86
2023/09/12 04:29:50;;;;;;;11.82;4.28;;;17.60;99.90;;;;;;5089194;28;20532;-86
2023/09/12 04:32:18;;;;;;;10.88;4.28;;;17.60;99.90;;;;;;5089548;28;20032;-89
2023/09/12 04:34:44;;;;;;;15.63;4.25;;;17.70;99.90;;;;;;5090676;28;20409;-88
2023/09/12 04:37:10;;;;;;;17.00;3.90;;;17.70;99.90;;;;;;5088873;28;20031;-87
2023/09/12 04:39:35;;;;;;;12.45;3.90;;;17.70;99.90;;;;;;5090314;28;20401;-86
2023/09/12 04:42:01;;;;;;;14.45;3.75;;;17.80;99.90;;;;;;5089924;28;20640;-87
2023/09/12 04:44:27;;;;;;;11.90;4.20;;;17.80;99.90;;;;;;5088869;28;20036;-87
2023/09/12 04:46:52;;;;;;;10.52;4.00;;;17.90;99.90;;;;;;5088954;28;20031;-87
2023/09/12 04:49:18;;;;;;;14.15;3.83;;;18.00;99.90;;;;;;5090651;28;20036;-87
2023/09/12 04:51:44;;;;;;;10.95;3.83;;;18.10;99.90;;;;;;5090243;28;20134;-85
2023/09/12 04:54:09;;;;;;;16.67;3.95;;;18.30;99.90;;;;;;5088456;28;20515;-86
2023/09/12 04:56:35;;;;;;;10.85;3.78;;;18.50;99.90;;;;;;5087210;28;20557;-82
2023/09/12 04:59:00;;;;;;;13.07;4.15;;;18.70;99.90;;;;;;5087764;28;20150;-81
2023/09/12 05:01:26;;;;;;;15.40;3.47;;;18.80;99.90;;;;;;5089735;28;20123;-84
2023/09/12 05:03:52;;;;;;;10.18;3.80;;;18.80;99.90;;;;;;5089940;28;20028;-84
2023/09/12 05:06:18;;;;;;;15.07;4.28;;;18.90;99.90;;;;;;5089360;28;20844;-84
2023/09/12 05:08:43;;;;;;;18.08;5.15;;;18.90;99.90;;;;;;5087563;28;20042;-84
2023/09/12 05:11:09;;;;;;;26.55;4.97;;;18.90;99.90;;;;;;5088036;28;20032;-84
2023/09/12 05:13:35;;;;;;;21.75;4.88;;;18.90;99.90;;;;;;5089269;28;20038;-84
2023/09/12 05:16:00;;;;;;;14.40;5.35;;;18.90;99.90;;;;;;5087852;28;20043;-84
2023/09/12 05:18:26;;;;;;;13.95;5.93;;;19.00;99.90;;;;;;5089443;28;20038;-83
2023/09/12 05:20:52;;;;;;;15.98;6.18;;;19.10;99.90;;;;;;5087392;28;20034;-81
2023/09/12 05:23:18;;;;;;;15.32;5.88;;;19.50;99.90;;;;;;5087898;28;20130;-81
2023/09/12 05:25:43;;;;;;;16.15;5.05;;;20.00;99.90;;;;;;5087577;28;20480;-81
2023/09/12 05:28:09;;;;;;;12.45;5.25;;;20.60;99.90;;;;;;5087316;28;20055;-81
2023/09/12 05:30:34;;;;;;;13.48;5.40;;;20.90;99.90;;;;;;5087456;28;20543;-81
2023/09/12 05:33:00;;;;;;;12.27;4.40;;;21.30;99.90;;;;;;5087867;28;20143;-81
2023/09/12 05:35:26;;;;;;;11.30;4.78;;;21.70;99.90;;;;;;5087169;28;20034;-76
2023/09/12 05:37:52;;;;;;;11.55;4.57;;;22.10;99.90;;;;;;5086877;28;20024;-77
2023/09/12 05:40:18;;;;;;;12.77;5.22;;;22.30;99.40;;;;;;5088225;28;20784;-76
2023/09/12 05:42:44;;;;;;;19.58;4.82;;;22.70;98.60;;;;;;5086927;28;20516;-76
2023/09/12 05:45:10;;;;;;;16.30;4.68;;;22.90;98.30;;;;;;5086821;28;20111;-78
2023/09/12 05:47:36;;;;;;;30.48;4.38;;;23.00;97.40;;;;;;5088182;28;20107;-76
2023/09/12 05:50:05;;;;;;;11.43;3.97;;;23.20;95.50;;;;;;5082967;28;20151;-77
2023/09/12 05:52:31;;;;;;;12.30;3.60;;;23.40;94.20;;;;;;5087335;28;20115;-78
2023/09/12 05:54:56;;;;;;;14.43;3.70;;;23.40;94.50;;;;;;5086628;28;20135;-77
2023/09/12 05:57:22;;;;;;;10.57;4.10;;;23.40;94.10;;;;;;5088225;28;20028;-77
2023/09/12 05:59:48;;;;;;;14.10;4.85;;;23.50;93.80;;;;;;5086894;28;20078;-78
2023/09/12 06:02:13;;;;;;;16.55;4.25;;;23.50;93.80;;;;;;5086984;28;20839;-78
2023/09/12 06:04:39;;;;;;;17.38;4.10;;;23.50;94.00;;;;;;5087001;28;20444;-78
2023/09/12 06:07:05;;;;;;;10.48;4.20;;;23.60;93.00;;;;;;5087378;28;20480;-76
2023/09/12 06:09:31;;;;;;;17.45;5.07;;;23.80;92.60;;;;;;5090938;28;20151;-77
2023/09/12 06:11:56;;;;;;;15.52;3.38;;;24.00;91.30;;;;;;5090788;28;20554;-78
2023/09/12 06:14:22;;;;;;;10.95;4.13;;;24.40;90.30;;;;;;5091587;28;20040;-79
2023/09/12 06:16:48;;;;;;;16.90;4.50;;;24.80;88.50;;;;;;5090662;28;20536;-81
2023/09/12 06:19:14;;;;;;;12.18;4.78;;;25.10;86.50;;;;;;5090751;28;20024;-77
2023/09/12 06:21:40;;;;;;;19.52;5.15;;;25.40;85.00;;;;;;5091872;28;20402;-78
2023/09/12 06:24:12;;;;;;;16.63;4.28;;;26.00;82.30;;;;;;5091882;28;20046;-77
2023/09/12 06:26:38;;;;;;;18.85;4.75;;;26.40;81.20;;;;;;5090395;28;20024;-77
2023/09/12 06:29:04;;;;;;;9.95;3.90;;;26.80;77.70;;;;;;5091644;28;20040;-78
2023/09/12 06:31:30;;;;;;;14.05;4.82;;;27.20;74.60;;;;;;5091484;28;20648;-80
2023/09/12 06:33:56;;;;;;;22.27;4.50;;;27.40;71.80;;;;;;5090182;28;20043;-80
2023/09/12 06:36:23;;;;;;;29.40;4.85;;;27.50;70.40;;;;;;5091596;28;20022;-80
2023/09/12 06:38:49;;;;;;;17.90;5.32;;;28.10;68.60;;;;;;5090258;28;20028;-80
2023/09/12 06:41:15;;;;;;;14.75;4.55;;;28.50;66.50;;;;;;5091229;28;20043;-79
2023/09/12 06:43:43;;;;;;;10.70;3.95;;;28.90;64.90;;;;;;5087038;28;20019;-80
2023/09/12 06:46:08;;;;;;;14.43;3.60;;;29.40;62.30;;;;;;5086903;28;20077;-79
2023/09/12 06:48:34;;;;;;;17.92;4.15;;;29.40;60.20;;;;;;5090081;28;20466;-77
2023/09/12 06:51:00;;;;;;;14.15;4.00;;;29.70;59.90;;;;;;5089710;28;20712;-80
2023/09/12 06:53:25;;;;;;;13.90;4.35;;;30.10;59.40;;;;;;5091124;28;20531;-78
2023/09/12 06:55:51;;;;;;;22.75;4.63;;;30.30;58.40;;;;;;5090173;28;20150;-77
2023/09/12 06:58:16;;;;;;;16.15;4.13;;;30.70;57.30;;;;;;5089930;28;20031;-78
2023/09/12 07:00:42;;;;;;;14.77;3.75;;;31.00;56.70;;;;;;5089950;28;20043;-77
2023/09/12 07:03:08;;;;;;;9.95;4.40;;;31.20;56.60;;;;;;5090721;28;20036;-77
2023/09/12 07:05:36;;;;;;;18.67;4.03;;;31.50;55.60;;;;;;5091101;28;20074;-77
2023/09/12 07:08:02;;;;;;;19.48;4.65;;;31.70;55.10;;;;;;5091030;28;20665;-78
2023/09/12 07:10:28;;;;;;;19.00;4.72;;;31.80;54.20;;;;;;5089389;28;20047;-78
2023/09/12 07:12:54;;;;;;;19.48;4.75;;;31.90;53.50;;;;;;5084902;28;20513;-78
2023/09/12 07:15:19;;;;;;;23.08;5.63;;;32.00;53.20;;;;;;5090852;28;20086;-77
2023/09/12 07:17:45;;;;;;;12.18;4.75;;;32.40;52.60;;;;;;5090805;28;20039;-78
2023/09/12 07:20:11;;;;;;;14.43;4.80;;;32.60;51.90;;;;;;5088844;28;20077;-78
2023/09/12 07:22:39;;;;;;;12.85;4.18;;;32.80;50.90;;;;;;5090369;28;20597;-78
2023/09/12 07:25:05;;;;;;;26.60;4.90;;;32.90;50.50;;;;;;5090624;28;20024;-77
2023/09/12 07:27:31;;;;;;;10.48;4.47;;;33.20;49.70;;;;;;5090586;28;20028;-80
2023/09/12 07:29:57;;;;;;;20.45;5.25;;;33.80;48.60;;;;;;5090385;28;20412;-79
2023/09/12 07:32:24;;;;;;;16.50;4.85;;;33.90;47.80;;;;;;5089094;28;20055;-79
2023/09/12 07:34:49;;;;;;;20.27;5.78;;;34.00;48.10;;;;;;5089028;28;20039;-79
2023/09/12 07:37:15;;;;;;;14.90;4.32;;;34.40;47.70;;;;;;5089111;28;20032;-80
2023/09/12 07:39:41;;;;;;;12.80;4.60;;;34.70;47.20;;;;;;5089126;28;20032;-79
2023/09/12 07:42:06;;;;;;;22.95;5.85;;;34.90;46.40;;;;;;5088852;28;20488;-80
2023/09/12 07:44:32;;;;;;;19.55;4.90;;;35.00;46.00;;;;;;5090337;28;20028;-80
2023/09/12 07:46:58;;;;;;;15.77;4.32;;;34.90;46.00;;;;;;5088895;28;20390;-80
2023/09/12 07:49:26;;;;;;;21.80;4.32;;;35.10;45.40;;;;;;5090287;28;20028;-80
2023/09/12 07:51:51;;;;;;;9.25;4.50;;;35.20;44.80;;;;;;5088615;28;20035;-80
2023/09/12 07:54:17;;;;;;;14.38;5.30;;;35.20;44.50;;;;;;5089671;28;20032;-80
2023/09/12 07:56:43;;;;;;;16.98;4.38;;;35.50;43.80;;;;;;5089076;28;20070;-79
2023/09/12 07:59:10;;;;;;;12.85;5.35;;;35.90;43.50;;;;;;5089974;28;20431;-79
2023/09/12 08:01:36;;;;;;;18.42;4.18;;;36.20;43.50;;;;;;5089716;28;20484;-80
2023/09/12 08:04:02;;;;;;;17.65;4.88;;;36.40;42.00;;;;;;5088150;28;20036;-80
2023/09/12 08:06:28;;;;;;;11.25;3.88;;;36.30;40.70;;;;;;5088427;28;20527;-79
2023/09/12 08:08:53;;;;;;;22.75;5.65;;;36.20;41.30;;;;;;5083219;28;20144;-79
2023/09/12 08:11:19;;;;;;;24.77;5.78;;;36.40;42.10;;;;;;5075254;28;20020;-80
2023/09/12 08:13:48;;;;;;;20.50;5.20;;;36.10;41.80;;;;;;5069481;28;20057;-80
2023/09/12 08:16:14;;;;;;;21.42;4.75;;;36.40;41.10;;;;;;5067831;28;20713;-80
2023/09/12 08:18:39;;;;;;;16.40;5.40;;;36.40;41.50;;;;;;5067895;28;20066;-81
2023/09/12 08:21:05;;;;;;;15.75;4.30;;;36.40;40.60;;;;;;5069046;28;20028;-81
2023/09/12 08:23:31;;;;;;;12.25;5.15;;;36.30;41.00;;;;;;5069162;28;20079;-79
2023/09/12 08:25:56;;;;;;;16.00;4.55;;;36.30;41.40;;;;;;5069083;28;20576;-80
2023/09/12 08:28:22;;;;;;;18.98;5.15;;;36.30;41.80;;;;;;5069112;28;20035;-80
2023/09/12 08:30:48;;;;;;;20.83;5.43;;;36.50;41.10;;;;;;5079109;28;20441;-80
2023/09/12 08:33:13;;;;;;;14.68;4.85;;;36.50;40.70;;;;;;5087234;28;20040;-80
2023/09/12 08:35:39;;;;;;;12.88;5.13;;;36.30;41.10;;;;;;5087499;28;20016;-81
2023/09/12 08:38:06;;;;;;;15.85;5.00;;;36.40;42.10;;;;;;5090905;28;20495;-80
2023/09/12 08:40:33;;;;;;;13.95;5.18;;;36.70;41.30;;;;;;5097115;28;20020;-80
2023/09/12 08:42:59;;;;;;;21.02;5.90;;;36.80;41.40;;;;;;5104592;28;20063;-80
2023/09/12 08:45:25;;;;;;;22.63;5.25;;;37.10;40.80;;;;;;5095385;28;20058;-80
2023/09/12 08:47:53;;;;;;;24.27;5.00;;;36.90;39.70;;;;;;5086963;28;20020;-80
2023/09/12 08:50:20;;;;;;;12.75;4.88;;;36.50;40.20;;;;;;5087277;28;20496;-79
2023/09/12 08:52:47;;;;;;;9.30;4.43;;;36.40;41.10;;;;;;5088676;28;20040;-80
2023/09/12 08:55:13;;;;;;;15.30;5.00;;;36.70;41.10;;;;;;5087570;28;20016;-80
2023/09/12 08:57:46;;;;;;;21.88;5.15;;;36.70;41.70;;;;;;5088878;28;20440;-81
2023/09/12 09:00:12;;;;;;;24.75;6.22;;;36.90;41.40;;;;;;5087511;28;20549;-80
2023/09/12 09:02:39;;;;;;;22.67;5.03;;;36.80;41.20;;;;;;5088815;28;20036;-80
2023/09/12 09:05:10;;;;;;;13.73;4.40;;;36.80;41.10;;;;;;5087289;28;20020;-80
2023/09/12 09:07:41;;;;;;;15.23;4.28;;;37.00;41.60;;;;;;5087473;28;20038;-79
2023/09/12 09:10:16;;;;;;;20.73;5.50;;;37.00;41.50;;;;;;5087160;28;20028;-80
2023/09/12 09:12:44;;;;;;;10.05;4.75;;;37.20;41.00;;;;;;5083157;28;20109;-80
2023/09/12 09:15:41;;;;;;;22.63;5.65;;;37.30;40.90;;;;;;5079617;28;20051;-79
2023/09/12 09:18:07;;;;;;;14.40;5.30;;;37.20;41.00;;;;;;5088989;28;20127;-79
2023/09/12 09:20:37;;;;;;;22.85;5.60;;;37.20;41.50;;;;;;5077105;28;20127;-80
2023/09/12 09:23:10;;;;;;;28.25;5.18;;;37.40;41.20;;;;;;5076120;28;20027;-79
2023/09/12 09:25:53;;;;;;;20.15;5.38;;;37.30;40.30;;;;;;5099694;28;20047;-80
2023/09/12 09:28:20;;;;;;;18.58;4.78;;;37.30;39.00;;;;;;5088386;28;20492;-79
2023/09/12 09:30:51;;;;;;;10.88;5.18;;;37.20;39.80;;;;;;5086522;28;20032;-79
2023/09/12 09:33:17;;;;;;;15.98;4.88;;;37.40;39.30;;;;;;5088402;28;20077;-80
2023/09/12 09:35:45;;;;;;;15.07;5.20;;;37.50;38.70;;;;;;5086951;28;20122;-79
2023/09/12 09:38:16;;;;;;;17.30;5.22;;;37.70;38.80;;;;;;5087157;28;20408;-86
2023/09/12 09:40:45;;;;;;;16.13;5.07;;;37.80;38.90;;;;;;5089405;28;20110;-85
2023/09/12 09:43:11;;;;;;;12.63;5.07;;;37.80;38.00;;;;;;5090046;28;20527;-83
2023/09/12 09:45:46;;;;;;;12.38;5.00;;;37.70;38.20;;;;;;5091632;28;20032;-83
2023/09/12 09:48:28;;;;;;;10.85;5.05;;;37.80;38.40;;;;;;5093223;28;20023;-81
2023/09/12 09:51:01;;;;;;;20.23;5.18;;;37.80;38.10;;;;;;5091759;28;20036;-82
2023/09/12 09:53:32;;;;;;;17.33;5.35;;;38.00;38.00;;;;;;5092959;28;20039;-83
2023/09/12 09:56:14;;;;;;;19.65;5.68;;;38.00;37.10;;;;;;5091535;28;20598;-81
2023/09/12 09:58:56;;;;;;;23.85;4.57;;;37.80;36.30;;;;;;5091283;28;20804;-82
2023/09/12 10:01:25;;;;;;;16.48;5.13;;;37.40;37.30;;;;;;5092456;28;20028;-83
2023/09/12 10:03:52;;;;;;;14.55;4.55;;;37.60;37.30;;;;;;5090860;28;20106;-82
2023/09/12 10:06:19;;;;;;;16.33;5.43;;;37.90;37.40;;;;;;5091313;28;20496;-82
2023/09/12 10:08:52;;;;;;;14.27;5.57;;;37.80;36.80;;;;;;5092584;28;20024;-83
2023/09/12 10:11:20;;;;;;;17.85;4.28;;;37.60;36.50;;;;;;5092443;28;20085;-82
2023/09/12 10:13:57;;;;;;;10.20;5.15;;;37.60;37.00;;;;;;5091096;28;20496;-82
2023/09/12 10:16:27;;;;;;;8.30;4.32;;;37.60;36.50;;;;;;5092459;28;20504;-82
2023/09/12 10:19:19;;;;;;;17.58;4.15;;;37.30;36.80;;;;;;5091162;28;20110;-82
2023/09/12 10:21:50;;;;;;;7.97;3.58;;;37.20;36.20;;;;;;5092381;28;20060;-83
2023/09/12 10:24:16;;;;;;;9.68;3.75;;;36.70;36.20;;;;;;5092532;28;20519;-82
2023/09/12 10:26:46;;;;;;;10.68;4.22;;;36.20;36.90;;;;;;5092468;28;20102;-83
2023/09/12 10:29:15;;;;;;;12.70;4.03;;;35.50;37.80;;;;;;5092427;28;20097;-82
2023/09/12 10:31:41;;;;;;;12.30;3.63;;;35.10;37.50;;;;;;5091999;28;20039;-82
2023/09/12 10:34:09;;;;;;;13.55;4.68;;;34.70;38.60;;;;;;5090889;28;20122;-82
2023/09/12 10:36:39;;;;;;;10.80;4.43;;;34.30;38.00;;;;;;5090995;28;20550;-80
2023/09/12 10:39:06;;;;;;;26.10;5.43;;;33.90;39.70;;;;;;5090969;28;20101;-82
2023/09/12 10:41:36;;;;;;;8.05;3.97;;;33.70;40.30;;;;;;5092067;28;20030;-81
2023/09/12 10:44:25;;;;;;;9.35;4.45;;;33.50;40.50;;;;;;5092174;28;20039;-81
2023/09/12 10:46:53;;;;;;;9.00;4.40;;;33.50;40.10;;;;;;5090452;28;20026;-82
2023/09/12 10:49:19;;;;;;;9.20;3.85;;;33.30;39.80;;;;;;5092179;28;20035;-80
2023/09/12 10:51:46;;;;;;;20.45;4.47;;;33.20;41.00;;;;;;5091740;28;20039;-81
2023/09/12 10:54:23;;;;;;;10.27;4.25;;;33.00;41.40;;;;;;5089510;28;20032;-77
2023/09/12 10:57:13;;;;;;;18.98;5.03;;;32.80;41.50;;;;;;5091872;28;20555;-80
2023/09/12 11:00:10;;;;;;;12.70;4.40;;;32.80;41.90;;;;;;5091629;28;20031;-80
2023/09/12 11:02:45;;;;;;;12.65;4.13;;;32.60;41.30;;;;;;5090572;28;20059;-79
2023/09/12 11:05:29;;;;;;;8.27;3.65;;;32.50;40.60;;;;;;5091911;28;20046;-79
2023/09/12 11:08:03;;;;;;;14.48;4.53;;;32.60;41.30;;;;;;5090369;28;20036;-78
2023/09/12 11:10:31;;;;;;;10.70;3.90;;;32.50;40.50;;;;;;5090258;28;20024;-83
2023/09/12 11:12:57;;;;;;;10.38;4.43;;;32.30;40.90;;;;;;5091569;28;20292;-82
2023/09/12 11:15:25;;;;;;;8.07;3.42;;;32.10;39.40;;;;;;5090204;28;20044;-81
2023/09/12 11:18:11;;;;;;;11.82;3.85;;;31.90;40.40;;;;;;5091531;28;20030;-83
2023/09/12 11:20:52;;;;;;;8.90;3.92;;;32.00;41.90;;;;;;5090424;28;20048;-81
2023/09/12 11:23:19;;;;;;;10.35;3.22;;;32.00;41.20;;;;;;5091383;28;20036;-81
2023/09/12 11:25:44;;;;;;;13.15;3.70;;;32.00;40.70;;;;;;5091278;28;20031;-82
2023/09/12 11:28:10;;;;;;;6.97;3.50;;;31.90;40.50;;;;;;5091304;28;20401;-81
2023/09/12 11:30:36;;;;;;;10.15;3.58;;;31.90;40.70;;;;;;5090097;28;20590;-83
2023/09/12 11:33:10;;;;;;;17.20;3.67;;;31.80;40.10;;;;;;5089620;28;20137;-82
2023/09/12 11:35:40;;;;;;;11.35;3.60;;;31.50;40.70;;;;;;5089707;28;20032;-82
2023/09/12 11:38:10;;;;;;;12.25;3.00;;;31.40;41.60;;;;;;5089441;28;20119;-81
2023/09/12 11:40:36;;;;;;;8.00;3.70;;;31.40;42.70;;;;;;5089584;28;20492;-82
2023/09/12 11:43:01;;;;;;;6.45;3.40;;;31.50;42.10;;;;;;5089394;28;20090;-82
2023/09/12 11:45:30;;;;;;;16.30;4.03;;;31.50;40.90;;;;;;5090813;28;20468;-81
2023/09/12 11:47:56;;;;;;;7.45;2.88;;;31.60;40.50;;;;;;5089660;28;20028;-83
2023/09/12 11:50:32;;;;;;;16.23;3.60;;;31.70;41.10;;;;;;5089463;28;20557;-82
2023/09/12 11:53:11;;;;;;;9.75;3.38;;;31.80;41.40;;;;;;5090916;28;20046;-81
2023/09/12 11:55:45;;;;;;;7.00;2.53;;;31.80;40.50;;;;;;5089647;28;20032;-82
2023/09/12 11:58:12;;;;;;;12.05;3.05;;;31.90;40.70;;;;;;5088459;28;20094;-82
2023/09/12 12:00:53;;;;;;;10.95;3.45;;;32.00;40.60;;;;;;5070125;28;20401;-84
2023/09/12 12:03:21;;;;;;;17.73;3.50;;;31.90;39.70;;;;;;5069525;28;20028;-82
2023/09/12 12:05:47;;;;;;;10.15;3.78;;;31.90;39.30;;;;;;5069069;28;20119;-81
2023/09/12 12:08:15;;;;;;;10.43;3.78;;;31.90;39.30;;;;;;5069115;28;20132;-81
2023/09/12 12:10:41;;;;;;;12.48;3.20;;;31.90;39.00;;;;;;5068815;28;20077;-80
2023/09/12 12:13:11;;;;;;;8.88;3.13;;;31.90;39.40;;;;;;5070004;28;20040;-81
2023/09/12 12:15:37;;;;;;;6.03;3.30;;;32.00;40.10;;;;;;5068682;28;20048;-82
2023/09/12 12:18:04;;;;;;;12.25;3.80;;;32.00;40.30;;;;;;5069996;28;20098;-81
2023/09/12 12:20:30;;;;;;;10.80;3.20;;;32.10;40.30;;;;;;5068097;28;20055;-82
2023/09/12 12:22:56;;;;;;;12.75;4.25;;;32.10;39.30;;;;;;5068434;28;20659;-82
2023/09/12 12:25:22;;;;;;;14.95;4.15;;;32.10;38.30;;;;;;5070210;28;20111;-82
2023/09/12 12:27:48;;;;;;;9.13;3.70;;;32.10;39.10;;;;;;5068774;28;20468;-81
2023/09/12 12:30:14;;;;;;;11.02;3.20;;;32.00;38.60;;;;;;5069849;28;20074;-82
2023/09/12 12:32:41;;;;;;;10.68;3.65;;;32.00;39.60;;;;;;5069694;28;20040;-82
2023/09/12 12:35:08;;;;;;;12.45;3.75;;;32.00;39.90;;;;;;5068194;28;20017;-81
2023/09/12 12:37:35;;;;;;;13.73;3.63;;;32.00;39.80;;;;;;5068249;28;20032;-82
2023/09/12 12:40:05;;;;;;;9.88;3.42;;;32.00;39.70;;;;;;5068116;28;20029;-81